sensor_id;sensor_type;location;lat;lon;timestamp;pressure;altitude;pressure_sealevel;temperature;humidity
54854;BME280;40747;49.480;8.658;2022-10-17T00:00:26;100736.44;;;16.79;100.00
54854;BME280;40747;49.480;8.658;2022-10-17T00:02:54;100727.53;;;16.80;100.00
54854;BME280;40747;49.480;8.658;2022-10-17T00:05:20;100736.16;;;16.85;100.00
54854;BME280;40747;49.480;8.658;2022-10-17T00:07:45;100729.25;;;16.81;100.00
54854;BME280;40747;49.480;8.658;2022-10-17T00:10:11;100732.69;;;16.83;100.00
54854;BME280;40747;49.480;8.658;2022-10-17T00:12:36;100734.22;;;16.70;100.00
54854;BME280;40747;49.480;8.658;2022-10-17T00:15:03;100736.22;;;16.66;100.00
54854;BME280;40747;49.480;8.658;2022-10-17T00:17:29;100735.19;;;16.69;100.00
54854;BME280;40747;49.480;8.658;2022-10-17T00:19:57;100733.16;;;16.74;100.00
54854;BME280;40747;49.480;8.658;2022-10-17T00:22:22;100744.22;;;16.65;100.00
54854;BME280;40747;49.480;8.658;2022-10-17T00:24:48;100736.41;;;16.62;100.00
54854;BME280;40747;49.480;8.658;2022-10-17T00:27:13;100739.00;;;16.63;100.00
54854;BME280;40747;49.480;8.658;2022-10-17T00:29:38;100738.78;;;16.68;100.00
54854;BME280;40747;49.480;8.658;2022-10-17T00:32:04;100745.19;;;16.64;100.00
54854;BME280;40747;49.480;8.658;2022-10-17T00:34:29;100739.94;;;16.62;100.00
54854;BME280;40747;49.480;8.658;2022-10-17T00:36:55;100751.38;;;16.64;100.00
54854;BME280;40747;49.480;8.658;2022-10-17T00:39:20;100749.56;;;16.65;100.00
54854;BME280;40747;49.480;8.658;2022-10-17T00:41:45;100749.63;;;16.63;100.00
54854;BME280;40747;49.480;8.658;2022-10-17T00:47:05;100750.44;;;16.65;100.00
54854;BME280;40747;49.480;8.658;2022-10-17T00:49:35;100750.72;;;16.59;100.00
54854;BME280;40747;49.480;8.658;2022-10-17T00:52:06;100754.47;;;16.55;100.00
54854;BME280;40747;49.480;8.658;2022-10-17T00:54:36;100753.56;;;16.56;100.00
54854;BME280;40747;49.480;8.658;2022-10-17T00:57:04;100757.91;;;16.57;100.00
54854;BME280;40747;49.480;8.658;2022-10-17T00:59:32;100762.53;;;16.53;100.00
54854;BME280;40747;49.480;8.658;2022-10-17T01:02:11;100774.03;;;16.54;100.00
54854;BME280;40747;49.480;8.658;2022-10-17T01:04:40;100766.59;;;16.61;100.00
54854;BME280;40747;49.480;8.658;2022-10-17T01:07:06;100761.66;;;16.53;100.00
54854;BME280;40747;49.480;8.658;2022-10-17T01:09:31;100776.97;;;16.48;100.00
54854;BME280;40747;49.480;8.658;2022-10-17T01:15:02;100762.88;;;16.46;100.00
54854;BME280;40747;49.480;8.658;2022-10-17T01:26:18;100787.88;;;16.61;100.00
54854;BME280;40747;49.480;8.658;2022-10-17T01:29:18;100787.44;;;16.70;100.00
54854;BME280;40747;49.480;8.658;2022-10-17T01:31:54;100787.09;;;16.78;100.00
54854;BME280;40747;49.480;8.658;2022-10-17T01:37:09;100770.09;;;16.80;100.00
54854;BME280;40747;49.480;8.658;2022-10-17T01:40:18;100776.72;;;16.71;100.00
54854;BME280;40747;49.480;8.658;2022-10-17T01:43:03;100776.53;;;16.57;100.00
54854;BME280;40747;49.480;8.658;2022-10-17T01:45:36;100777.84;;;16.48;100.00
54854;BME280;40747;49.480;8.658;2022-10-17T01:48:10;100776.78;;;16.52;100.00
54854;BME280;40747;49.480;8.658;2022-10-17T01:50:41;100775.38;;;16.63;100.00
54854;BME280;40747;49.480;8.658;2022-10-17T01:53:23;100779.53;;;16.68;100.00
54854;BME280;40747;49.480;8.658;2022-10-17T01:55:53;100765.69;;;16.62;100.00
54854;BME280;40747;49.480;8.658;2022-10-17T01:58:33;100765.59;;;16.63;100.00
54854;BME280;40747;49.480;8.658;2022-10-17T02:01:02;100769.56;;;16.54;100.00
54854;BME280;40747;49.480;8.658;2022-10-17T02:03:30;100764.25;;;16.54;100.00
54854;BME280;40747;49.480;8.658;2022-10-17T02:05:56;100763.56;;;16.51;100.00
54854;BME280;40747;49.480;8.658;2022-10-17T02:08:39;100768.00;;;16.50;100.00
54854;BME280;40747;49.480;8.658;2022-10-17T02:11:10;100770.44;;;16.55;100.00
54854;BME280;40747;49.480;8.658;2022-10-17T02:16:34;100765.19;;;16.53;100.00
54854;BME280;40747;49.480;8.658;2022-10-17T02:19:16;100767.06;;;16.51;100.00
54854;BME280;40747;49.480;8.658;2022-10-17T02:22:14;100766.41;;;16.46;100.00
54854;BME280;40747;49.480;8.658;2022-10-17T02:27:47;100761.97;;;16.28;100.00
54854;BME280;40747;49.480;8.658;2022-10-17T02:33:04;100759.28;;;16.10;100.00
54854;BME280;40747;49.480;8.658;2022-10-17T02:35:34;100762.06;;;16.07;100.00
54854;BME280;40747;49.480;8.658;2022-10-17T02:38:04;100768.09;;;16.11;100.00
54854;BME280;40747;49.480;8.658;2022-10-17T02:40:31;100762.34;;;16.01;100.00
54854;BME280;40747;49.480;8.658;2022-10-17T02:42:58;100768.22;;;15.88;100.00
54854;BME280;40747;49.480;8.658;2022-10-17T02:45:26;100771.91;;;15.86;100.00
54854;BME280;40747;49.480;8.658;2022-10-17T02:48:01;100766.25;;;15.73;100.00
54854;BME280;40747;49.480;8.658;2022-10-17T02:50:42;100771.56;;;15.73;100.00
54854;BME280;40747;49.480;8.658;2022-10-17T02:53:14;100778.66;;;15.72;100.00
54854;BME280;40747;49.480;8.658;2022-10-17T02:55:48;100782.31;;;15.70;100.00
54854;BME280;40747;49.480;8.658;2022-10-17T02:58:18;100786.75;;;15.69;100.00
54854;BME280;40747;49.480;8.658;2022-10-17T03:00:45;100782.53;;;15.65;100.00
54854;BME280;40747;49.480;8.658;2022-10-17T03:03:23;100786.03;;;15.66;100.00
54854;BME280;40747;49.480;8.658;2022-10-17T03:05:48;100777.69;;;15.54;100.00
54854;BME280;40747;49.480;8.658;2022-10-17T03:08:14;100784.56;;;15.59;100.00
54854;BME280;40747;49.480;8.658;2022-10-17T03:10:39;100778.56;;;15.55;100.00
54854;BME280;40747;49.480;8.658;2022-10-17T03:13:05;100781.00;;;15.60;100.00
54854;BME280;40747;49.480;8.658;2022-10-17T03:15:30;100773.03;;;15.60;100.00
54854;BME280;40747;49.480;8.658;2022-10-17T03:17:55;100779.25;;;15.59;100.00
54854;BME280;40747;49.480;8.658;2022-10-17T03:20:21;100781.44;;;15.69;100.00
54854;BME280;40747;49.480;8.658;2022-10-17T03:22:46;100779.34;;;15.57;100.00
54854;BME280;40747;49.480;8.658;2022-10-17T03:25:11;100777.81;;;15.51;100.00
54854;BME280;40747;49.480;8.658;2022-10-17T03:27:36;100774.09;;;15.55;100.00
54854;BME280;40747;49.480;8.658;2022-10-17T03:30:02;100782.06;;;15.55;100.00
54854;BME280;40747;49.480;8.658;2022-10-17T03:32:27;100783.19;;;15.50;100.00
54854;BME280;40747;49.480;8.658;2022-10-17T03:34:53;100781.81;;;15.41;100.00
54854;BME280;40747;49.480;8.658;2022-10-17T03:37:18;100777.50;;;15.38;100.00
54854;BME280;40747;49.480;8.658;2022-10-17T03:39:43;100777.88;;;15.29;100.00
54854;BME280;40747;49.480;8.658;2022-10-17T03:42:09;100776.88;;;15.32;100.00
54854;BME280;40747;49.480;8.658;2022-10-17T03:44:34;100777.16;;;15.26;100.00
54854;BME280;40747;49.480;8.658;2022-10-17T03:46:59;100773.38;;;15.31;100.00
54854;BME280;40747;49.480;8.658;2022-10-17T03:49:24;100780.59;;;15.28;100.00
54854;BME280;40747;49.480;8.658;2022-10-17T03:51:50;100781.25;;;15.33;100.00
54854;BME280;40747;49.480;8.658;2022-10-17T03:54:15;100784.06;;;15.30;100.00
54854;BME280;40747;49.480;8.658;2022-10-17T03:56:41;100786.72;;;15.30;100.00
54854;BME280;40747;49.480;8.658;2022-10-17T03:59:11;100791.81;;;15.34;100.00
54854;BME280;40747;49.480;8.658;2022-10-17T04:01:36;100799.31;;;15.45;100.00
54854;BME280;40747;49.480;8.658;2022-10-17T04:04:02;100798.31;;;15.48;100.00
54854;BME280;40747;49.480;8.658;2022-10-17T04:06:27;100800.66;;;15.55;100.00
54854;BME280;40747;49.480;8.658;2022-10-17T04:08:52;100805.81;;;15.59;100.00
54854;BME280;40747;49.480;8.658;2022-10-17T04:11:19;100810.34;;;15.56;100.00
54854;BME280;40747;49.480;8.658;2022-10-17T04:13:45;100804.63;;;15.66;100.00
54854;BME280;40747;49.480;8.658;2022-10-17T04:16:13;100808.00;;;15.69;100.00
54854;BME280;40747;49.480;8.658;2022-10-17T04:18:39;100809.75;;;15.70;100.00
54854;BME280;40747;49.480;8.658;2022-10-17T04:21:05;100813.91;;;15.76;100.00
54854;BME280;40747;49.480;8.658;2022-10-17T04:23:31;100819.06;;;15.79;100.00
54854;BME280;40747;49.480;8.658;2022-10-17T04:25:57;100821.06;;;15.74;100.00
54854;BME280;40747;49.480;8.658;2022-10-17T04:28:23;100820.38;;;15.70;100.00
54854;BME280;40747;49.480;8.658;2022-10-17T04:31:00;100830.97;;;15.70;100.00
54854;BME280;40747;49.480;8.658;2022-10-17T04:33:26;100829.03;;;15.74;100.00
54854;BME280;40747;49.480;8.658;2022-10-17T04:35:59;100825.59;;;15.72;100.00
54854;BME280;40747;49.480;8.658;2022-10-17T04:38:26;100820.41;;;15.69;100.00
54854;BME280;40747;49.480;8.658;2022-10-17T04:40:51;100821.34;;;15.68;100.00
54854;BME280;40747;49.480;8.658;2022-10-17T04:43:17;100820.38;;;15.70;100.00
54854;BME280;40747;49.480;8.658;2022-10-17T04:45:43;100815.25;;;15.66;100.00
54854;BME280;40747;49.480;8.658;2022-10-17T04:48:08;100817.25;;;15.61;100.00
54854;BME280;40747;49.480;8.658;2022-10-17T04:50:33;100824.72;;;15.51;100.00
54854;BME280;40747;49.480;8.658;2022-10-17T04:52:59;100811.38;;;15.52;100.00
54854;BME280;40747;49.480;8.658;2022-10-17T04:55:24;100815.00;;;15.51;100.00
54854;BME280;40747;49.480;8.658;2022-10-17T04:57:50;100817.16;;;15.42;100.00
54854;BME280;40747;49.480;8.658;2022-10-17T05:00:15;100826.13;;;15.39;100.00
54854;BME280;40747;49.480;8.658;2022-10-17T05:02:41;100821.06;;;15.33;100.00
54854;BME280;40747;49.480;8.658;2022-10-17T05:05:07;100820.41;;;15.28;100.00
54854;BME280;40747;49.480;8.658;2022-10-17T05:07:32;100825.78;;;15.26;100.00
54854;BME280;40747;49.480;8.658;2022-10-17T05:09:58;100829.38;;;15.25;100.00
54854;BME280;40747;49.480;8.658;2022-10-17T05:12:24;100827.44;;;15.29;100.00
54854;BME280;40747;49.480;8.658;2022-10-17T05:14:49;100832.34;;;15.38;100.00
54854;BME280;40747;49.480;8.658;2022-10-17T05:17:14;100833.28;;;15.37;100.00
54854;BME280;40747;49.480;8.658;2022-10-17T05:19:40;100832.56;;;15.33;100.00
54854;BME280;40747;49.480;8.658;2022-10-17T05:22:05;100831.84;;;15.30;100.00
54854;BME280;40747;49.480;8.658;2022-10-17T05:24:30;100829.34;;;15.04;100.00
54854;BME280;40747;49.480;8.658;2022-10-17T05:26:56;100831.00;;;15.07;100.00
54854;BME280;40747;49.480;8.658;2022-10-17T05:29:21;100826.19;;;15.17;100.00
54854;BME280;40747;49.480;8.658;2022-10-17T05:31:46;100826.88;;;15.20;100.00
54854;BME280;40747;49.480;8.658;2022-10-17T05:34:12;100831.41;;;15.18;100.00
54854;BME280;40747;49.480;8.658;2022-10-17T05:36:37;100831.28;;;15.21;100.00
54854;BME280;40747;49.480;8.658;2022-10-17T05:39:03;100836.59;;;15.21;100.00
54854;BME280;40747;49.480;8.658;2022-10-17T05:41:28;100830.59;;;15.16;100.00
54854;BME280;40747;49.480;8.658;2022-10-17T05:43:53;100832.34;;;15.17;100.00
54854;BME280;40747;49.480;8.658;2022-10-17T05:46:19;100827.97;;;15.16;100.00
54854;BME280;40747;49.480;8.658;2022-10-17T05:48:44;100833.16;;;15.19;100.00
54854;BME280;40747;49.480;8.658;2022-10-17T05:51:10;100840.88;;;15.26;100.00
54854;BME280;40747;49.480;8.658;2022-10-17T05:53:38;100837.41;;;15.23;100.00
54854;BME280;40747;49.480;8.658;2022-10-17T05:56:05;100843.06;;;15.36;100.00
54854;BME280;40747;49.480;8.658;2022-10-17T05:58:32;100836.88;;;15.36;100.00
54854;BME280;40747;49.480;8.658;2022-10-17T06:01:00;100837.81;;;15.35;100.00
54854;BME280;40747;49.480;8.658;2022-10-17T06:03:26;100839.41;;;15.39;100.00
54854;BME280;40747;49.480;8.658;2022-10-17T06:05:51;100849.16;;;15.38;100.00
54854;BME280;40747;49.480;8.658;2022-10-17T06:08:17;100844.84;;;15.36;100.00
54854;BME280;40747;49.480;8.658;2022-10-17T06:10:42;100853.59;;;15.38;100.00
54854;BME280;40747;49.480;8.658;2022-10-17T06:13:07;100858.84;;;15.39;100.00
54854;BME280;40747;49.480;8.658;2022-10-17T06:15:33;100857.84;;;15.42;100.00
54854;BME280;40747;49.480;8.658;2022-10-17T06:17:58;100860.88;;;15.33;100.00
54854;BME280;40747;49.480;8.658;2022-10-17T06:20:23;100863.78;;;15.27;100.00
54854;BME280;40747;49.480;8.658;2022-10-17T06:22:49;100863.78;;;15.27;100.00
54854;BME280;40747;49.480;8.658;2022-10-17T06:25:14;100866.41;;;15.28;100.00
54854;BME280;40747;49.480;8.658;2022-10-17T06:27:39;100860.22;;;15.28;100.00
54854;BME280;40747;49.480;8.658;2022-10-17T06:30:05;100859.13;;;15.33;100.00
54854;BME280;40747;49.480;8.658;2022-10-17T06:32:30;100856.47;;;15.33;100.00
54854;BME280;40747;49.480;8.658;2022-10-17T06:34:56;100850.81;;;15.41;100.00
54854;BME280;40747;49.480;8.658;2022-10-17T06:37:21;100846.63;;;15.56;100.00
54854;BME280;40747;49.480;8.658;2022-10-17T06:39:46;100860.56;;;15.61;100.00
54854;BME280;40747;49.480;8.658;2022-10-17T06:42:12;100867.09;;;15.75;100.00
54854;BME280;40747;49.480;8.658;2022-10-17T06:44:37;100867.53;;;15.86;100.00
54854;BME280;40747;49.480;8.658;2022-10-17T06:47:04;100871.16;;;16.04;100.00
54854;BME280;40747;49.480;8.658;2022-10-17T06:49:29;100871.66;;;16.12;100.00
54854;BME280;40747;49.480;8.658;2022-10-17T06:51:54;100881.94;;;16.20;100.00
54854;BME280;40747;49.480;8.658;2022-10-17T06:54:20;100883.59;;;16.22;100.00
54854;BME280;40747;49.480;8.658;2022-10-17T06:56:45;100892.53;;;16.21;100.00
54854;BME280;40747;49.480;8.658;2022-10-17T06:59:10;100884.47;;;16.23;100.00
54854;BME280;40747;49.480;8.658;2022-10-17T07:01:36;100903.53;;;16.12;100.00
54854;BME280;40747;49.480;8.658;2022-10-17T07:04:02;100906.47;;;16.06;100.00
54854;BME280;40747;49.480;8.658;2022-10-17T07:06:27;100908.63;;;15.98;100.00
54854;BME280;40747;49.480;8.658;2022-10-17T07:08:52;100914.44;;;16.06;100.00
54854;BME280;40747;49.480;8.658;2022-10-17T07:11:21;100907.28;;;16.08;100.00
54854;BME280;40747;49.480;8.658;2022-10-17T07:13:47;100918.59;;;15.93;100.00
54854;BME280;40747;49.480;8.658;2022-10-17T07:16:13;100929.19;;;15.72;100.00
54854;BME280;40747;49.480;8.658;2022-10-17T07:18:39;100924.09;;;15.88;100.00
54854;BME280;40747;49.480;8.658;2022-10-17T07:21:05;100925.88;;;16.08;100.00
54854;BME280;40747;49.480;8.658;2022-10-17T07:23:30;100928.78;;;16.22;100.00
54854;BME280;40747;49.480;8.658;2022-10-17T07:26:04;100935.56;;;16.30;100.00
54854;BME280;40747;49.480;8.658;2022-10-17T07:28:33;100937.25;;;16.51;100.00
54854;BME280;40747;49.480;8.658;2022-10-17T07:31:10;100941.84;;;16.67;100.00
54854;BME280;40747;49.480;8.658;2022-10-17T07:33:36;100946.44;;;16.63;100.00
54854;BME280;40747;49.480;8.658;2022-10-17T07:36:02;100945.94;;;16.55;100.00
54854;BME280;40747;49.480;8.658;2022-10-17T07:38:28;100955.84;;;16.51;100.00
54854;BME280;40747;49.480;8.658;2022-10-17T07:41:01;100958.38;;;16.54;100.00
54854;BME280;40747;49.480;8.658;2022-10-17T07:43:27;100957.44;;;16.55;100.00
54854;BME280;40747;49.480;8.658;2022-10-17T07:45:53;100962.69;;;16.57;100.00
54854;BME280;40747;49.480;8.658;2022-10-17T07:48:19;100972.56;;;16.74;100.00
54854;BME280;40747;49.480;8.658;2022-10-17T07:50:46;100975.38;;;16.90;100.00
54854;BME280;40747;49.480;8.658;2022-10-17T07:53:12;100976.56;;;17.03;100.00
54854;BME280;40747;49.480;8.658;2022-10-17T07:55:39;100984.94;;;17.13;100.00
54854;BME280;40747;49.480;8.658;2022-10-17T07:58:05;100980.69;;;17.28;98.66
54854;BME280;40747;49.480;8.658;2022-10-17T08:00:30;100976.22;;;17.29;98.76
54854;BME280;40747;49.480;8.658;2022-10-17T08:02:55;100968.53;;;17.42;98.89
54854;BME280;40747;49.480;8.658;2022-10-17T08:05:21;100965.53;;;17.48;98.54
54854;BME280;40747;49.480;8.658;2022-10-17T08:07:46;100975.44;;;17.63;99.06
54854;BME280;40747;49.480;8.658;2022-10-17T08:10:13;100978.38;;;17.76;97.77
54854;BME280;40747;49.480;8.658;2022-10-17T08:12:38;100974.53;;;17.82;98.09
54854;BME280;40747;49.480;8.658;2022-10-17T08:15:05;100979.19;;;17.96;97.98
54854;BME280;40747;49.480;8.658;2022-10-17T08:17:36;100977.84;;;18.05;98.49
54854;BME280;40747;49.480;8.658;2022-10-17T08:20:03;100975.50;;;18.16;96.52
54854;BME280;40747;49.480;8.658;2022-10-17T08:22:28;100978.31;;;18.46;95.11
54854;BME280;40747;49.480;8.658;2022-10-17T08:24:54;100982.59;;;18.66;96.19
54854;BME280;40747;49.480;8.658;2022-10-17T08:27:19;100988.31;;;18.76;95.32
54854;BME280;40747;49.480;8.658;2022-10-17T08:29:52;100982.63;;;18.82;93.43
54854;BME280;40747;49.480;8.658;2022-10-17T08:32:23;100988.09;;;19.13;92.44
54854;BME280;40747;49.480;8.658;2022-10-17T08:34:50;100978.44;;;19.42;90.79
54854;BME280;40747;49.480;8.658;2022-10-17T08:37:16;100980.28;;;19.72;92.56
54854;BME280;40747;49.480;8.658;2022-10-17T08:39:41;100970.19;;;19.77;91.72
54854;BME280;40747;49.480;8.658;2022-10-17T08:47:01;100970.47;;;20.77;87.61
54854;BME280;40747;49.480;8.658;2022-10-17T08:52:04;100971.09;;;20.81;86.03
54854;BME280;40747;49.480;8.658;2022-10-17T08:54:39;100970.03;;;20.98;86.24
54854;BME280;40747;49.480;8.658;2022-10-17T08:57:13;100972.03;;;20.94;85.28
54854;BME280;40747;49.480;8.658;2022-10-17T08:59:40;100972.16;;;20.92;85.23
54854;BME280;40747;49.480;8.658;2022-10-17T09:05:13;100960.72;;;21.03;85.47
54854;BME280;40747;49.480;8.658;2022-10-17T09:07:56;100939.06;;;21.21;84.05
54854;BME280;40747;49.480;8.658;2022-10-17T09:13:39;100956.22;;;21.73;81.29
54854;BME280;40747;49.480;8.658;2022-10-17T09:19:16;100963.22;;;22.01;77.94
54854;BME280;40747;49.480;8.658;2022-10-17T09:21:54;100972.38;;;22.12;78.59
54854;BME280;40747;49.480;8.658;2022-10-17T09:27:18;100990.72;;;22.05;75.78
54854;BME280;40747;49.480;8.658;2022-10-17T09:29:48;100989.84;;;22.04;78.18
54854;BME280;40747;49.480;8.658;2022-10-17T09:32:18;100987.91;;;21.93;76.88
54854;BME280;40747;49.480;8.658;2022-10-17T09:34:45;100993.47;;;22.03;77.42
54854;BME280;40747;49.480;8.658;2022-10-17T09:37:13;100994.25;;;22.05;78.91
54854;BME280;40747;49.480;8.658;2022-10-17T09:39:39;101010.22;;;22.07;76.44
54854;BME280;40747;49.480;8.658;2022-10-17T09:42:11;100997.34;;;21.99;78.06
54854;BME280;40747;49.480;8.658;2022-10-17T09:44:44;100998.78;;;22.18;75.92
54854;BME280;40747;49.480;8.658;2022-10-17T09:47:30;100996.78;;;22.47;73.60
54854;BME280;40747;49.480;8.658;2022-10-17T09:49:58;100994.16;;;22.33;75.21
54854;BME280;40747;49.480;8.658;2022-10-17T09:52:34;100997.50;;;22.36;74.61
54854;BME280;40747;49.480;8.658;2022-10-17T09:55:04;100993.88;;;22.37;76.79
54854;BME280;40747;49.480;8.658;2022-10-17T10:00:23;100991.06;;;22.52;75.05
54854;BME280;40747;49.480;8.658;2022-10-17T10:02:49;100989.38;;;22.51;75.31
54854;BME280;40747;49.480;8.658;2022-10-17T10:05:17;101001.38;;;22.58;74.00
54854;BME280;40747;49.480;8.658;2022-10-17T10:08:19;100995.44;;;22.79;73.93
54854;BME280;40747;49.480;8.658;2022-10-17T10:10:44;100997.94;;;22.82;73.50
54854;BME280;40747;49.480;8.658;2022-10-17T10:15:48;100997.16;;;22.80;73.63
54854;BME280;40747;49.480;8.658;2022-10-17T10:21:03;101018.66;;;22.67;74.30
54854;BME280;40747;49.480;8.658;2022-10-17T10:23:28;101020.38;;;22.81;75.49
54854;BME280;40747;49.480;8.658;2022-10-17T10:25:56;101014.25;;;22.79;73.97
54854;BME280;40747;49.480;8.658;2022-10-17T10:28:26;101025.44;;;22.72;74.38
54854;BME280;40747;49.480;8.658;2022-10-17T10:30:53;101023.72;;;22.58;74.59
54854;BME280;40747;49.480;8.658;2022-10-17T10:33:21;101017.47;;;22.71;74.02
54854;BME280;40747;49.480;8.658;2022-10-17T10:36:06;101015.09;;;22.92;73.79
54854;BME280;40747;49.480;8.658;2022-10-17T10:38:32;101014.75;;;23.10;72.28
54854;BME280;40747;49.480;8.658;2022-10-17T10:41:06;101021.06;;;23.21;72.88
54854;BME280;40747;49.480;8.658;2022-10-17T10:46:03;101009.81;;;23.03;72.83
54854;BME280;40747;49.480;8.658;2022-10-17T10:48:34;101011.16;;;23.22;72.93
54854;BME280;40747;49.480;8.658;2022-10-17T10:51:20;101010.22;;;23.47;71.73
54854;BME280;40747;49.480;8.658;2022-10-17T10:53:51;101009.31;;;23.60;73.73
54854;BME280;40747;49.480;8.658;2022-10-17T10:56:28;101002.44;;;23.55;71.89
54854;BME280;40747;49.480;8.658;2022-10-17T10:59:21;101002.03;;;23.49;71.50
54854;BME280;40747;49.480;8.658;2022-10-17T11:01:54;101002.66;;;23.77;70.91
54854;BME280;40747;49.480;8.658;2022-10-17T11:04:43;100999.84;;;23.78;69.97
54854;BME280;40747;49.480;8.658;2022-10-17T11:09:52;101005.97;;;24.04;69.93
54854;BME280;40747;49.480;8.658;2022-10-17T11:20:28;101000.97;;;23.87;69.30
54854;BME280;40747;49.480;8.658;2022-10-17T11:23:00;101019.31;;;24.06;69.70
54854;BME280;40747;49.480;8.658;2022-10-17T11:25:31;101017.38;;;23.84;71.47
54854;BME280;40747;49.480;8.658;2022-10-17T11:27:58;101016.88;;;23.79;69.63
54854;BME280;40747;49.480;8.658;2022-10-17T11:30:26;101026.88;;;23.77;70.72
54854;BME280;40747;49.480;8.658;2022-10-17T11:32:59;101020.41;;;23.79;69.88
54854;BME280;40747;49.480;8.658;2022-10-17T11:35:45;101020.28;;;23.81;71.27
54854;BME280;40747;49.480;8.658;2022-10-17T11:40:56;101027.63;;;23.79;70.80
54854;BME280;40747;49.480;8.658;2022-10-17T11:43:47;101024.81;;;24.04;71.12
54854;BME280;40747;49.480;8.658;2022-10-17T11:46:18;101024.91;;;23.92;71.27
54854;BME280;40747;49.480;8.658;2022-10-17T11:48:56;101026.50;;;23.94;70.87
54854;BME280;40747;49.480;8.658;2022-10-17T11:51:23;101020.28;;;23.81;70.27
54854;BME280;40747;49.480;8.658;2022-10-17T11:54:12;101023.03;;;23.92;71.47
54854;BME280;40747;49.480;8.658;2022-10-17T12:02:40;101031.50;;;23.99;71.75
54854;BME280;40747;49.480;8.658;2022-10-17T12:06:11;101030.91;;;23.58;71.04
54854;BME280;40747;49.480;8.658;2022-10-17T12:08:43;101024.56;;;23.35;71.59
54854;BME280;40747;49.480;8.658;2022-10-17T12:13:59;101019.84;;;23.63;72.67
54854;BME280;40747;49.480;8.658;2022-10-17T12:21:27;101020.84;;;23.73;71.76
54854;BME280;40747;49.480;8.658;2022-10-17T12:23:53;101009.97;;;23.63;71.02
54854;BME280;40747;49.480;8.658;2022-10-17T12:26:27;101017.03;;;23.64;70.97
54854;BME280;40747;49.480;8.658;2022-10-17T12:28:53;101017.25;;;23.61;71.91
54854;BME280;40747;49.480;8.658;2022-10-17T12:33:57;101016.31;;;23.62;70.38
54854;BME280;40747;49.480;8.658;2022-10-17T12:52:26;101010.69;;;23.65;69.43
54854;BME280;40747;49.480;8.658;2022-10-17T12:55:12;101008.38;;;23.48;71.03
54854;BME280;40747;49.480;8.658;2022-10-17T12:57:46;101008.28;;;23.49;70.85
54854;BME280;40747;49.480;8.658;2022-10-17T13:02:56;101002.41;;;23.68;71.16
54854;BME280;40747;49.480;8.658;2022-10-17T13:05:35;100990.63;;;23.69;71.44
54854;BME280;40747;49.480;8.658;2022-10-17T13:08:03;101009.63;;;23.79;72.76
54854;BME280;40747;49.480;8.658;2022-10-17T13:10:33;101000.94;;;23.76;70.50
54854;BME280;40747;49.480;8.658;2022-10-17T13:13:04;101004.50;;;23.76;70.84
54854;BME280;40747;49.480;8.658;2022-10-17T13:15:30;100999.63;;;23.81;71.70
54854;BME280;40747;49.480;8.658;2022-10-17T13:17:58;101001.81;;;24.00;70.57
54854;BME280;40747;49.480;8.658;2022-10-17T13:20:26;101002.53;;;24.02;69.25
54854;BME280;40747;49.480;8.658;2022-10-17T13:22:52;100999.34;;;23.97;70.17
54854;BME280;40747;49.480;8.658;2022-10-17T13:25:19;100991.91;;;24.12;70.89
54854;BME280;40747;49.480;8.658;2022-10-17T13:27:46;100998.94;;;24.37;70.63
54854;BME280;40747;49.480;8.658;2022-10-17T13:30:22;101006.16;;;24.37;69.90
54854;BME280;40747;49.480;8.658;2022-10-17T13:32:48;101024.72;;;24.17;69.23
54854;BME280;40747;49.480;8.658;2022-10-17T13:35:20;101020.53;;;24.02;70.07
54854;BME280;40747;49.480;8.658;2022-10-17T13:37:46;101024.69;;;23.82;70.42
54854;BME280;40747;49.480;8.658;2022-10-17T13:40:21;101030.00;;;23.70;70.11
54854;BME280;40747;49.480;8.658;2022-10-17T13:42:47;101030.72;;;23.61;71.26
54854;BME280;40747;49.480;8.658;2022-10-17T13:45:23;101023.16;;;23.66;71.29
54854;BME280;40747;49.480;8.658;2022-10-17T13:47:51;101020.91;;;23.84;72.86
54854;BME280;40747;49.480;8.658;2022-10-17T13:50:32;101025.84;;;23.91;72.06
54854;BME280;40747;49.480;8.658;2022-10-17T13:53:39;101031.41;;;23.87;71.80
54854;BME280;40747;49.480;8.658;2022-10-17T13:56:25;101037.81;;;23.86;72.04
54854;BME280;40747;49.480;8.658;2022-10-17T14:01:22;101031.13;;;23.92;72.88
54854;BME280;40747;49.480;8.658;2022-10-17T14:03:48;101021.88;;;23.83;72.58
54854;BME280;40747;49.480;8.658;2022-10-17T14:06:19;101024.88;;;23.67;71.82
54854;BME280;40747;49.480;8.658;2022-10-17T14:08:51;101037.88;;;23.73;72.30
54854;BME280;40747;49.480;8.658;2022-10-17T14:11:21;101036.34;;;23.69;72.44
54854;BME280;40747;49.480;8.658;2022-10-17T14:13:49;101041.00;;;23.67;71.85
54854;BME280;40747;49.480;8.658;2022-10-17T14:16:15;101037.00;;;23.73;72.95
54854;BME280;40747;49.480;8.658;2022-10-17T14:18:41;101037.97;;;23.72;72.76
54854;BME280;40747;49.480;8.658;2022-10-17T14:21:17;101033.00;;;23.79;72.97
54854;BME280;40747;49.480;8.658;2022-10-17T14:23:43;101030.91;;;23.82;72.45
54854;BME280;40747;49.480;8.658;2022-10-17T14:26:19;101033.09;;;23.77;73.46
54854;BME280;40747;49.480;8.658;2022-10-17T14:29:19;101030.53;;;23.76;74.40
54854;BME280;40747;49.480;8.658;2022-10-17T14:31:45;101026.22;;;23.73;73.55
54854;BME280;40747;49.480;8.658;2022-10-17T14:34:28;101035.19;;;23.85;71.82
54854;BME280;40747;49.480;8.658;2022-10-17T14:36:54;101035.19;;;23.85;73.16
54854;BME280;40747;49.480;8.658;2022-10-17T14:39:22;101027.78;;;23.64;72.78
54854;BME280;40747;49.480;8.658;2022-10-17T14:41:50;101036.78;;;23.52;73.84